Time;durP1;ratioP1;P1;durP2;ratioP2;P2;SDS_P1;SDS_P2;PMS_P1;PMS_P2;Temp;Humidity;BMP_temperature;BMP_pressure;BME280_temperature;BME280_humidity;BME280_pressure;Samples;Min_cycle;Max_cycle;Signal;HPM_P1;HPM_P2
2021/05/03 00:01:20;;;;;;;5.63;3.13;;;5.50;78.20;;;;;;5058181;28;20020;-67
2021/05/03 00:03:46;;;;;;;4.70;2.33;;;5.50;78.00;;;;;;5055116;28;20357;-68
2021/05/03 00:06:12;;;;;;;6.83;2.73;;;5.50;78.30;;;;;;5064117;28;20029;-70
2021/05/03 00:08:37;;;;;;;5.57;2.50;;;5.50;78.40;;;;;;5063956;28;20503;-68
2021/05/03 00:11:03;;;;;;;8.57;3.40;;;5.50;78.50;;;;;;5036812;28;20115;-67
2021/05/03 00:13:29;;;;;;;6.53;2.77;;;5.50;78.70;;;;;;5055472;28;20485;-67
2021/05/03 00:15:55;;;;;;;5.90;3.17;;;5.50;78.50;;;;;;5037477;28;20108;-68
2021/05/03 00:18:20;;;;;;;6.10;2.97;;;5.50;78.60;;;;;;5055117;28;20029;-68
2021/05/03 00:20:46;;;;;;;6.77;2.60;;;5.50;78.60;;;;;;5020781;28;20036;-68
2021/05/03 00:23:14;;;;;;;5.53;2.37;;;5.50;78.60;;;;;;5055190;28;20400;-67
2021/05/03 00:25:40;;;;;;;6.30;3.13;;;5.50;78.80;;;;;;5048628;28;20020;-67
2021/05/03 00:28:06;;;;;;;4.77;2.53;;;5.40;78.90;;;;;;5057268;28;20027;-67
2021/05/03 00:30:31;;;;;;;6.17;2.97;;;5.40;79.20;;;;;;5068245;28;20086;-67
2021/05/03 00:32:57;;;;;;;6.10;3.10;;;5.50;79.40;;;;;;5067964;28;20036;-68
2021/05/03 00:35:23;;;;;;;9.80;3.57;;;5.50;79.40;;;;;;5056790;28;20472;-68
2021/05/03 00:37:49;;;;;;;7.50;2.77;;;5.40;79.50;;;;;;5040631;28;20119;-68
2021/05/03 00:40:14;;;;;;;5.57;2.80;;;5.40;80.00;;;;;;5074961;28;20063;-67
2021/05/03 00:42:43;;;;;;;7.43;3.50;;;5.40;80.20;;;;;;5056845;28;20032;-68
2021/05/03 00:45:11;;;;;;;5.60;3.00;;;5.40;80.10;;;;;;5055870;28;20162;-68
2021/05/03 00:47:37;;;;;;;6.40;3.50;;;5.40;80.10;;;;;;5066412;28;20032;-68
2021/05/03 00:50:09;;;;;;;5.90;3.07;;;5.40;80.30;;;;;;5056290;28;20025;-68
2021/05/03 00:52:35;;;;;;;7.50;3.90;;;5.40;80.50;;;;;;5074414;28;20480;-68
2021/05/03 00:55:01;;;;;;;7.27;3.23;;;5.40;80.70;;;;;;5073738;28;20031;-68
2021/05/03 00:57:26;;;;;;;7.20;3.60;;;5.40;80.80;;;;;;5074587;28;20024;-68
2021/05/03 00:59:53;;;;;;;10.17;3.37;;;5.40;81.00;;;;;;5055845;28;20048;-69
2021/05/03 01:02:19;;;;;;;5.60;2.80;;;5.40;81.10;;;;;;5074087;28;20101;-67
2021/05/03 01:04:45;;;;;;;6.17;3.00;;;5.40;81.30;;;;;;5074296;28;20020;-70
2021/05/03 01:07:11;;;;;;;4.70;2.83;;;5.40;81.40;;;;;;5074823;28;20085;-67
2021/05/03 01:09:36;;;;;;;5.57;3.07;;;5.40;81.60;;;;;;5039969;28;20357;-67
2021/05/03 01:12:03;;;;;;;6.03;2.97;;;5.50;82.60;;;;;;5039702;28;20483;-68
2021/05/03 01:14:29;;;;;;;6.60;3.17;;;5.50;82.00;;;;;;5068475;28;20028;-68
2021/05/03 01:16:54;;;;;;;7.27;3.40;;;5.50;81.90;;;;;;5052830;28;20020;-68
2021/05/03 01:19:21;;;;;;;9.00;3.47;;;5.60;82.10;;;;;;5053781;28;20094;-68
2021/05/03 01:21:47;;;;;;;7.13;3.50;;;5.50;81.70;;;;;;5054282;28;20457;-67
2021/05/03 01:24:14;;;;;;;7.90;3.63;;;5.50;81.90;;;;;;5049802;28;20079;-67
2021/05/03 01:26:40;;;;;;;8.23;4.23;;;5.50;81.90;;;;;;5052244;28;20104;-68
2021/05/03 01:29:06;;;;;;;7.23;3.80;;;5.50;82.00;;;;;;5036123;28;20108;-68
2021/05/03 01:31:31;;;;;;;7.83;3.53;;;5.50;82.00;;;;;;5063589;28;20469;-68
2021/05/03 01:34:03;;;;;;;7.03;4.17;;;5.40;82.20;;;;;;5073891;28;20078;-69
2021/05/03 01:36:29;;;;;;;8.97;3.93;;;5.40;82.10;;;;;;5074119;28;20020;-68
2021/05/03 01:38:54;;;;;;;9.50;4.17;;;5.40;82.20;;;;;;5056049;28;20039;-67
2021/05/03 01:41:20;;;;;;;7.07;3.97;;;5.40;82.40;;;;;;5073830;28;20057;-68
2021/05/03 01:43:45;;;;;;;11.27;4.40;;;5.30;82.20;;;;;;5073974;28;20367;-68
2021/05/03 01:46:11;;;;;;;7.27;4.00;;;5.30;82.20;;;;;;5055784;28;20025;-68
2021/05/03 01:48:37;;;;;;;7.77;4.27;;;5.20;82.30;;;;;;5053737;28;20146;-68
2021/05/03 01:51:05;;;;;;;7.60;4.20;;;5.20;82.40;;;;;;5064212;28;20036;-68
2021/05/03 01:53:31;;;;;;;9.40;4.20;;;5.20;82.50;;;;;;5053341;28;20491;-68
2021/05/03 01:55:58;;;;;;;9.50;4.30;;;5.10;82.70;;;;;;5035349;28;20049;-69
2021/05/03 01:58:25;;;;;;;8.57;5.13;;;5.10;82.80;;;;;;5053744;28;20083;-68
2021/05/03 02:00:52;;;;;;;9.47;4.73;;;5.10;82.90;;;;;;5035593;28;20032;-68
2021/05/03 02:03:29;;;;;;;7.80;4.27;;;5.00;83.00;;;;;;5056033;28;20033;-68
2021/05/03 02:05:55;;;;;;;9.20;5.00;;;5.00;83.10;;;;;;5055558;28;20025;-68
2021/05/03 02:08:21;;;;;;;7.30;4.23;;;5.00;83.30;;;;;;5035634;28;20043;-68
2021/05/03 02:10:50;;;;;;;8.20;4.80;;;5.00;83.40;;;;;;5053408;28;20037;-68
2021/05/03 02:13:16;;;;;;;8.60;5.23;;;4.90;83.50;;;;;;5053573;28;20021;-68
2021/05/03 02:15:42;;;;;;;10.57;4.73;;;5.00;83.60;;;;;;5052995;28;20033;-68
2021/05/03 02:18:08;;;;;;;9.77;6.20;;;4.90;83.60;;;;;;5060137;28;20033;-69
2021/05/03 02:20:34;;;;;;;9.20;5.37;;;4.90;83.70;;;;;;5054871;28;20021;-69
2021/05/03 02:23:01;;;;;;;11.40;5.40;;;4.90;83.80;;;;;;5055134;28;20537;-69
2021/05/03 02:25:26;;;;;;;11.77;6.27;;;4.90;83.80;;;;;;5073286;28;20040;-69
2021/05/03 02:27:52;;;;;;;12.27;5.80;;;4.90;84.10;;;;;;5055335;28;20040;-69
2021/05/03 02:30:18;;;;;;;9.97;5.40;;;4.90;84.10;;;;;;5055286;28;20044;-68
2021/05/03 02:32:45;;;;;;;10.47;5.87;;;4.90;84.10;;;;;;5072286;28;20028;-69
2021/05/03 02:35:15;;;;;;;8.27;4.93;;;4.90;84.20;;;;;;5053208;28;20020;-68
2021/05/03 02:37:43;;;;;;;11.17;5.70;;;4.90;84.20;;;;;;5051615;28;20472;-68
2021/05/03 02:40:09;;;;;;;9.80;5.53;;;4.90;84.20;;;;;;5035189;28;20120;-68
2021/05/03 02:42:35;;;;;;;10.30;5.93;;;4.80;84.20;;;;;;5035362;28;20087;-68
2021/05/03 02:45:01;;;;;;;10.33;5.83;;;4.80;84.40;;;;;;5039149;28;20024;-69
2021/05/03 02:47:27;;;;;;;10.13;5.60;;;4.80;84.50;;;;;;5073516;28;20055;-69
2021/05/03 02:49:53;;;;;;;8.77;5.70;;;4.80;85.00;;;;;;5054987;28;20063;-68
2021/05/03 02:52:18;;;;;;;12.80;6.97;;;4.70;84.80;;;;;;5038252;28;20044;-68
2021/05/03 02:54:44;;;;;;;14.43;6.80;;;4.70;84.90;;;;;;5054692;28;20434;-68
2021/05/03 02:57:10;;;;;;;10.80;6.43;;;4.70;85.00;;;;;;5072786;28;20032;-68
2021/05/03 02:59:35;;;;;;;12.10;6.27;;;4.70;85.10;;;;;;5072856;28;20025;-74
2021/05/03 03:02:01;;;;;;;12.80;6.97;;;4.80;85.30;;;;;;5054433;28;20020;-74
2021/05/03 03:04:26;;;;;;;11.87;6.60;;;4.80;85.30;;;;;;5054725;28;20035;-75
2021/05/03 03:06:52;;;;;;;12.97;7.70;;;4.80;85.40;;;;;;5055149;28;20035;-74
2021/05/03 03:09:18;;;;;;;11.57;6.00;;;4.80;85.30;;;;;;5072720;28;20391;-74
2021/05/03 03:11:46;;;;;;;10.80;6.20;;;4.80;85.20;;;;;;5055026;28;20032;-68
2021/05/03 03:14:12;;;;;;;12.13;6.80;;;4.80;85.30;;;;;;5072928;28;20052;-68
2021/05/03 03:16:38;;;;;;;10.90;6.77;;;4.70;85.30;;;;;;5072688;28;20428;-67
2021/05/03 03:19:04;;;;;;;12.73;6.37;;;4.70;85.30;;;;;;5056746;28;20457;-68
2021/05/03 03:21:29;;;;;;;11.37;6.47;;;4.70;85.30;;;;;;5058226;28;20684;-67
2021/05/03 03:23:55;;;;;;;11.00;6.63;;;4.70;85.50;;;;;;5058674;28;20072;-69
2021/05/03 03:26:21;;;;;;;13.30;7.07;;;4.70;85.50;;;;;;5076312;28;20024;-68
2021/05/03 03:28:47;;;;;;;10.90;6.10;;;4.60;85.50;;;;;;5076222;28;20111;-68
2021/05/03 03:31:13;;;;;;;11.17;7.03;;;4.60;85.60;;;;;;5076480;28;20028;-68
2021/05/03 03:33:38;;;;;;;11.60;6.67;;;4.60;85.70;;;;;;5058463;28;20093;-69
2021/05/03 03:36:08;;;;;;;11.03;6.80;;;4.60;85.80;;;;;;5075937;28;20071;-68
2021/05/03 03:38:35;;;;;;;10.70;6.43;;;4.60;85.90;;;;;;5075851;28;20039;-69
2021/05/03 03:41:01;;;;;;;11.83;6.77;;;4.60;86.10;;;;;;5076197;28;20028;-68
2021/05/03 03:43:26;;;;;;;13.10;6.67;;;4.60;86.10;;;;;;5076353;28;20017;-69
2021/05/03 03:45:53;;;;;;;11.47;7.03;;;4.60;86.10;;;;;;5076083;28;20160;-69
2021/05/03 03:48:18;;;;;;;11.77;6.90;;;4.60;86.40;;;;;;5076019;28;20106;-69
2021/05/03 03:50:44;;;;;;;11.23;6.97;;;4.60;86.20;;;;;;5041030;28;20044;-68
2021/05/03 03:53:10;;;;;;;10.67;6.57;;;4.60;86.20;;;;;;5075824;28;20031;-75
2021/05/03 03:55:36;;;;;;;11.20;6.80;;;4.60;86.20;;;;;;5075858;28;20105;-75
2021/05/03 03:58:02;;;;;;;11.37;6.93;;;4.70;86.40;;;;;;5075768;28;20465;-74
2021/05/03 04:00:28;;;;;;;13.67;6.93;;;4.60;86.30;;;;;;5074849;28;20023;-75
2021/05/03 04:02:54;;;;;;;10.87;6.20;;;4.60;86.50;;;;;;5075579;28;20021;-75
2021/05/03 04:08:04;;;;;;;12.87;6.97;;;4.70;86.30;;;;;;5054995;28;20041;-75
2021/05/03 04:24:11;;;;;;;12.87;8.63;;;4.60;86.50;;;;;;5073744;28;20045;-75
2021/05/03 04:26:36;;;;;;;12.27;7.80;;;4.60;86.50;;;;;;5057177;28;20480;-75
2021/05/03 04:29:02;;;;;;;14.33;8.30;;;4.70;86.50;;;;;;5057445;28;20037;-75
2021/05/03 04:31:28;;;;;;;13.40;8.47;;;4.70;86.70;;;;;;5074798;28;20024;-75
2021/05/03 04:33:54;;;;;;;16.13;8.93;;;4.70;86.80;;;;;;5057323;28;20483;-75
2021/05/03 04:36:20;;;;;;;17.10;9.10;;;4.70;86.70;;;;;;5075500;28;20495;-75
2021/05/03 04:38:46;;;;;;;14.40;8.87;;;4.70;86.70;;;;;;5075006;28;20032;-75
2021/05/03 04:41:12;;;;;;;14.77;8.83;;;4.70;86.90;;;;;;5057476;28;20020;-75
2021/05/03 04:43:38;;;;;;;14.77;9.30;;;4.80;86.90;;;;;;5075202;28;20023;-75
2021/05/03 04:46:05;;;;;;;15.47;8.87;;;4.80;86.80;;;;;;5074908;28;20024;-75
2021/05/03 04:48:31;;;;;;;15.70;9.03;;;4.80;86.70;;;;;;5075119;28;20055;-76
2021/05/03 04:50:57;;;;;;;18.10;9.80;;;4.90;86.70;;;;;;5074844;28;20048;-75
2021/05/03 04:53:23;;;;;;;14.97;8.57;;;4.80;86.70;;;;;;5057223;28;20041;-76
2021/05/03 04:55:49;;;;;;;16.23;9.23;;;4.90;86.60;;;;;;5074725;28;20024;-75
2021/05/03 04:58:15;;;;;;;14.00;8.27;;;4.90;86.40;;;;;;5055997;28;20419;-76
2021/05/03 05:00:41;;;;;;;18.70;9.00;;;4.90;87.10;;;;;;5074015;28;20024;-76
2021/05/03 05:03:06;;;;;;;15.50;9.47;;;5.00;86.90;;;;;;5074523;28;20191;-75
2021/05/03 05:05:32;;;;;;;16.80;9.83;;;5.00;86.80;;;;;;5074149;28;20502;-76
2021/05/03 05:07:58;;;;;;;14.37;9.17;;;5.00;86.50;;;;;;5074427;28;20028;-75
2021/05/03 05:10:25;;;;;;;17.60;10.17;;;5.10;86.50;;;;;;5056726;28;20052;-75
2021/05/03 05:12:51;;;;;;;16.73;9.03;;;5.10;86.40;;;;;;5073959;28;20025;-75
2021/05/03 05:15:17;;;;;;;17.63;9.27;;;5.10;86.40;;;;;;5039816;28;20025;-76
2021/05/03 05:17:43;;;;;;;17.23;10.37;;;5.10;86.30;;;;;;5070219;28;20044;-75
2021/05/03 05:20:10;;;;;;;15.73;9.70;;;5.20;86.30;;;;;;5054258;28;20025;-76
2021/05/03 05:22:38;;;;;;;16.63;9.60;;;5.20;86.30;;;;;;5055942;28;20021;-76
2021/05/03 05:25:08;;;;;;;14.47;8.60;;;5.20;86.00;;;;;;5082299;28;20063;-76
2021/05/03 05:27:34;;;;;;;16.17;9.57;;;5.20;85.80;;;;;;5073709;28;20027;-77
2021/05/03 05:30:00;;;;;;;13.80;7.83;;;5.30;85.80;;;;;;5053313;28;20025;-77
2021/05/03 05:32:26;;;;;;;16.73;8.73;;;5.30;85.90;;;;;;5056110;28;20416;-76
2021/05/03 05:34:51;;;;;;;13.00;8.53;;;5.30;85.80;;;;;;5073482;28;20426;-70
2021/05/03 05:37:17;;;;;;;15.43;8.33;;;5.30;85.80;;;;;;5019030;28;20111;-70
2021/05/03 05:39:43;;;;;;;19.40;8.53;;;5.40;85.70;;;;;;5072490;28;20037;-69
2021/05/03 05:42:08;;;;;;;13.67;8.27;;;5.40;85.70;;;;;;5077025;28;20036;-69
2021/05/03 05:44:34;;;;;;;17.30;8.00;;;5.50;85.70;;;;;;5078110;28;20070;-69
2021/05/03 05:47:00;;;;;;;14.70;8.37;;;5.50;85.50;;;;;;5058585;28;20090;-69
2021/05/03 05:49:26;;;;;;;13.13;7.93;;;5.50;85.30;;;;;;5055405;28;20111;-69
2021/05/03 05:51:52;;;;;;;15.37;8.30;;;5.60;85.30;;;;;;5078817;28;20023;-69
2021/05/03 05:54:18;;;;;;;13.17;8.07;;;5.70;85.30;;;;;;5071956;28;20396;-69
2021/05/03 05:56:43;;;;;;;17.47;8.63;;;5.70;85.10;;;;;;5072506;28;20039;-69
2021/05/03 05:59:09;;;;;;;12.53;8.03;;;5.80;85.00;;;;;;5057341;28;20028;-69
2021/05/03 06:01:35;;;;;;;14.43;8.77;;;5.80;84.80;;;;;;5055639;28;20055;-69
2021/05/03 06:04:00;;;;;;;15.17;8.17;;;5.80;84.80;;;;;;5062050;28;20082;-69
2021/05/03 06:06:26;;;;;;;15.87;8.80;;;5.90;84.70;;;;;;5080913;28;20021;-69
2021/05/03 06:08:52;;;;;;;14.53;8.43;;;5.90;84.60;;;;;;5076677;28;20024;-69
2021/05/03 06:11:18;;;;;;;13.17;8.07;;;6.00;84.40;;;;;;5038840;28;20086;-69
2021/05/03 06:13:43;;;;;;;13.67;7.87;;;6.00;84.20;;;;;;5073603;28;20490;-70
2021/05/03 06:16:09;;;;;;;11.17;7.03;;;6.10;84.20;;;;;;5055339;28;20416;-69
2021/05/03 06:18:35;;;;;;;12.80;7.33;;;6.20;84.20;;;;;;5055677;28;20175;-69
2021/05/03 06:21:01;;;;;;;10.13;5.60;;;6.20;84.00;;;;;;5073452;28;20029;-69
2021/05/03 06:23:26;;;;;;;10.97;7.27;;;6.30;83.90;;;;;;5073404;28;20094;-69
2021/05/03 06:25:53;;;;;;;11.17;6.77;;;6.40;83.40;;;;;;5073412;28;20081;-69
2021/05/03 06:28:19;;;;;;;12.53;7.13;;;6.40;83.10;;;;;;5055102;28;20086;-68
2021/05/03 06:30:46;;;;;;;11.47;7.03;;;6.50;83.10;;;;;;5074424;28;20029;-70
2021/05/03 06:33:12;;;;;;;13.17;6.13;;;6.60;83.00;;;;;;5065993;28;20032;-69
2021/05/03 06:35:38;;;;;;;12.03;6.87;;;6.70;82.30;;;;;;5072938;28;20024;-68
2021/05/03 06:38:06;;;;;;;15.07;7.33;;;6.80;81.80;;;;;;5072666;28;20487;-71
2021/05/03 06:40:32;;;;;;;11.17;6.00;;;6.90;81.40;;;;;;5055068;28;20029;-68
2021/05/03 06:42:58;;;;;;;9.80;5.20;;;6.90;80.50;;;;;;5073011;28;20017;-68
2021/05/03 06:45:23;;;;;;;9.37;5.13;;;7.00;80.50;;;;;;5072365;28;20036;-71
2021/05/03 06:47:50;;;;;;;8.87;4.90;;;7.10;80.40;;;;;;5055428;28;20032;-71
2021/05/03 06:50:17;;;;;;;8.40;5.03;;;7.20;79.80;;;;;;5077173;28;20055;-71
2021/05/03 06:52:44;;;;;;;11.70;6.33;;;7.20;79.70;;;;;;5051341;28;20426;-70
2021/05/03 06:55:11;;;;;;;12.83;6.13;;;7.30;79.30;;;;;;5075730;28;20040;-68
2021/05/03 06:57:37;;;;;;;10.67;6.10;;;7.40;78.20;;;;;;5076463;28;20033;-70
2021/05/03 07:00:05;;;;;;;10.23;5.10;;;7.40;78.10;;;;;;5076633;28;20035;-70
2021/05/03 07:02:30;;;;;;;10.13;5.07;;;7.50;78.10;;;;;;5076585;28;20488;-67
2021/05/03 07:04:56;;;;;;;12.20;6.03;;;7.60;78.20;;;;;;5059145;28;20036;-70
2021/05/03 07:07:22;;;;;;;8.23;4.97;;;7.60;77.70;;;;;;5076576;28;20032;-71
2021/05/03 07:09:48;;;;;;;9.10;5.47;;;7.70;76.80;;;;;;5058826;28;20036;-70
2021/05/03 07:12:24;;;;;;;10.73;4.50;;;7.70;76.20;;;;;;5058831;28;20031;-71
2021/05/03 07:14:50;;;;;;;8.23;4.97;;;7.80;77.10;;;;;;5042011;28;20028;-71
2021/05/03 07:17:16;;;;;;;9.67;4.50;;;7.90;76.30;;;;;;5076715;28;20059;-71
2021/05/03 07:19:42;;;;;;;9.13;5.20;;;8.00;76.10;;;;;;5041815;28;20037;-70
2021/05/03 07:22:10;;;;;;;6.47;4.27;;;8.00;75.60;;;;;;5076365;28;20108;-70
2021/05/03 07:24:36;;;;;;;12.07;5.07;;;8.10;75.40;;;;;;5077844;28;20075;-71
2021/05/03 07:27:02;;;;;;;14.10;5.17;;;8.20;75.30;;;;;;5075947;28;20033;-70
2021/05/03 07:29:28;;;;;;;11.37;5.83;;;8.30;74.90;;;;;;5058354;28;20032;-73
2021/05/03 07:31:54;;;;;;;8.97;5.60;;;8.40;74.80;;;;;;5046242;28;20526;-70
2021/05/03 07:34:19;;;;;;;11.20;5.80;;;8.40;74.20;;;;;;5058591;28;20090;-72
2021/05/03 07:36:45;;;;;;;10.53;5.27;;;8.50;73.50;;;;;;5058600;28;20384;-78
2021/05/03 07:39:11;;;;;;;10.43;5.73;;;8.60;73.60;;;;;;5075934;28;20101;-71
2021/05/03 07:41:40;;;;;;;10.60;5.53;;;8.60;73.60;;;;;;5058611;28;20078;-71
2021/05/03 07:44:06;;;;;;;12.93;7.07;;;8.70;73.60;;;;;;5036479;28;20036;-71
2021/05/03 07:46:32;;;;;;;15.20;8.17;;;8.80;72.80;;;;;;5021796;28;20122;-70
2021/05/03 07:48:59;;;;;;;13.00;8.77;;;8.90;73.30;;;;;;5056438;28;20476;-73
2021/05/03 07:51:25;;;;;;;13.30;8.07;;;9.00;73.40;;;;;;5038362;28;20052;-70
2021/05/03 07:53:52;;;;;;;13.10;8.97;;;9.10;73.30;;;;;;5055737;28;20040;-70
2021/05/03 07:56:18;;;;;;;15.77;9.67;;;9.20;73.90;;;;;;5055696;28;20044;-72
2021/05/03 07:58:46;;;;;;;18.20;11.50;;;9.30;72.70;;;;;;5059109;28;20533;-69
2021/05/03 08:01:13;;;;;;;16.90;10.50;;;9.40;71.80;;;;;;5075064;28;20055;-72
2021/05/03 08:03:40;;;;;;;18.60;10.73;;;9.40;71.80;;;;;;5075509;28;20034;-71
2021/05/03 08:06:08;;;;;;;15.73;11.23;;;9.50;71.80;;;;;;5057739;28;20120;-72
2021/05/03 08:08:34;;;;;;;15.73;10.97;;;9.60;71.50;;;;;;5075276;28;20032;-72
2021/05/03 08:11:00;;;;;;;18.20;12.70;;;9.70;71.60;;;;;;5040899;28;20054;-71
2021/05/03 08:13:28;;;;;;;18.53;13.20;;;9.70;71.60;;;;;;5057672;28;20452;-72
2021/05/03 08:15:55;;;;;;;26.37;15.67;;;9.90;71.40;;;;;;5075406;28;20037;-76
2021/05/03 08:18:21;;;;;;;22.77;15.73;;;9.90;70.80;;;;;;5074149;28;20044;-72
2021/05/03 08:20:47;;;;;;;25.27;15.30;;;9.90;70.60;;;;;;5057146;28;20393;-75
2021/05/03 08:23:18;;;;;;;22.33;14.97;;;9.90;70.60;;;;;;5074598;28;20051;-72
2021/05/03 08:25:48;;;;;;;18.03;14.03;;;10.00;70.60;;;;;;5058386;28;20518;-70
2021/05/03 08:28:15;;;;;;;23.50;14.33;;;10.00;70.40;;;;;;5077444;28;20019;-75
2021/05/03 08:30:40;;;;;;;21.50;14.63;;;10.00;70.60;;;;;;5077760;28;20034;-71
2021/05/03 08:33:06;;;;;;;22.17;14.17;;;10.20;70.80;;;;;;5058941;28;20457;-71
2021/05/03 08:35:32;;;;;;;22.07;13.93;;;10.40;70.80;;;;;;5058647;28;20426;-71
2021/05/03 08:37:57;;;;;;;20.37;14.20;;;10.40;70.00;;;;;;5043864;28;20110;-70
2021/05/03 08:40:23;;;;;;;18.30;13.70;;;10.50;69.80;;;;;;5058569;28;20012;-69
2021/05/03 08:42:49;;;;;;;23.17;15.63;;;10.50;69.80;;;;;;5084999;28;20028;-70
2021/05/03 08:45:15;;;;;;;20.23;13.40;;;10.60;69.00;;;;;;5095219;28;20031;-71
2021/05/03 08:47:52;;;;;;;18.60;12.33;;;10.70;68.50;;;;;;5076673;28;20028;-71
2021/05/03 08:50:26;;;;;;;20.87;13.63;;;10.70;68.40;;;;;;5061967;28;20425;-72
2021/05/03 08:52:55;;;;;;;18.43;13.13;;;10.80;68.20;;;;;;5074785;28;20052;-71
2021/05/03 08:55:21;;;;;;;19.37;13.07;;;10.90;68.30;;;;;;5057468;28;20361;-74
2021/05/03 08:57:47;;;;;;;22.67;13.03;;;11.00;67.80;;;;;;5074233;28;20028;-74
2021/05/03 09:00:14;;;;;;;17.63;12.33;;;11.10;67.50;;;;;;5074313;28;20029;-70
2021/05/03 09:02:44;;;;;;;20.77;13.10;;;11.20;67.20;;;;;;5057019;28;20473;-72
2021/05/03 09:05:10;;;;;;;19.33;14.17;;;11.30;67.20;;;;;;5056365;28;20012;-71
2021/05/03 09:07:44;;;;;;;16.77;12.20;;;11.40;67.30;;;;;;5074487;28;20448;-70
2021/05/03 09:10:15;;;;;;;16.48;11.73;;;11.50;66.90;;;;;;5056524;28;20024;-74
2021/05/03 09:12:41;;;;;;;20.00;12.87;;;11.60;65.80;;;;;;5074294;28;20093;-73
2021/05/03 09:15:07;;;;;;;18.30;13.13;;;11.70;65.90;;;;;;5056184;28;20107;-70
2021/05/03 09:17:41;;;;;;;17.33;12.67;;;11.80;65.30;;;;;;5073529;28;20483;-71
2021/05/03 09:20:14;;;;;;;18.80;13.13;;;11.90;65.40;;;;;;5055985;28;20025;-70
2021/05/03 09:22:55;;;;;;;18.13;12.57;;;12.00;64.70;;;;;;5073306;28;20027;-69
2021/05/03 09:28:09;;;;;;;16.70;12.02;;;12.20;64.10;;;;;;5056899;28;20040;-69
2021/05/03 09:30:40;;;;;;;19.70;12.10;;;12.30;64.40;;;;;;5074167;28;20028;-71
2021/05/03 09:33:20;;;;;;;18.13;11.80;;;12.40;64.10;;;;;;5074074;28;20033;-73
2021/05/03 09:36:01;;;;;;;16.70;12.13;;;12.60;63.10;;;;;;5073716;28;20037;-73
2021/05/03 09:38:29;;;;;;;19.35;12.13;;;12.60;62.60;;;;;;5075973;28;20020;-72
2021/05/03 09:41:14;;;;;;;18.38;11.63;;;12.70;61.40;;;;;;5080926;28;20104;-70
2021/05/03 09:43:42;;;;;;;16.70;11.15;;;12.80;61.80;;;;;;5075569;28;20059;-69
2021/05/03 09:46:34;;;;;;;15.18;10.75;;;12.90;61.30;;;;;;5076913;28;20020;-73
2021/05/03 09:49:03;;;;;;;16.02;11.07;;;13.00;60.40;;;;;;5075552;28;20031;-69
2021/05/03 09:52:03;;;;;;;16.70;11.82;;;13.10;60.30;;;;;;5093989;28;20019;-71
2021/05/03 09:54:30;;;;;;;16.45;10.80;;;13.30;60.10;;;;;;5046563;28;20078;-71
2021/05/03 09:57:21;;;;;;;13.32;9.50;;;13.50;60.10;;;;;;5073556;28;20028;-74
2021/05/03 09:59:50;;;;;;;15.27;10.73;;;13.60;59.00;;;;;;5072762;28;20115;-73
2021/05/03 10:05:15;;;;;;;14.75;10.35;;;13.80;57.30;;;;;;5073619;28;20074;-77
2021/05/03 10:07:50;;;;;;;14.13;11.07;;;13.80;56.90;;;;;;5073452;28;20111;-70
2021/05/03 10:10:21;;;;;;;17.17;11.40;;;13.90;57.50;;;;;;5065251;28;20039;-71
2021/05/03 10:12:47;;;;;;;15.15;11.23;;;13.90;56.50;;;;;;5056249;28;20036;-74
2021/05/03 10:15:16;;;;;;;19.08;11.05;;;14.00;56.50;;;;;;5073217;28;20037;-71
2021/05/03 10:17:43;;;;;;;16.70;10.60;;;14.20;56.80;;;;;;5073540;28;20067;-72
2021/05/03 10:20:11;;;;;;;13.15;9.93;;;14.40;55.70;;;;;;5055518;28;20016;-70
2021/05/03 10:22:37;;;;;;;13.50;9.45;;;14.50;55.60;;;;;;5073129;28;20021;-78
2021/05/03 10:25:06;;;;;;;12.05;8.45;;;14.80;55.60;;;;;;5072629;28;20051;-75
2021/05/03 10:27:33;;;;;;;13.73;9.55;;;15.00;55.00;;;;;;5070938;28;20021;-76
2021/05/03 10:30:12;;;;;;;15.48;10.48;;;15.20;54.00;;;;;;5054491;28;20032;-76
2021/05/03 10:32:39;;;;;;;15.85;9.88;;;15.40;52.80;;;;;;5079909;28;20367;-77
2021/05/03 10:35:07;;;;;;;13.00;9.45;;;15.40;52.30;;;;;;5041773;28;20085;-75
2021/05/03 10:37:40;;;;;;;12.25;9.15;;;15.50;52.30;;;;;;5071993;28;20040;-77
2021/05/03 10:40:14;;;;;;;13.27;9.53;;;15.60;52.10;;;;;;5064833;28;20025;-72
2021/05/03 10:43:02;;;;;;;11.38;9.40;;;15.60;51.40;;;;;;5052165;28;20041;-70
2021/05/03 10:49:37;;;;;;;14.63;10.15;;;15.80;50.70;;;;;;5077266;28;20036;-72
2021/05/03 10:54:25;;;;;;;11.55;8.90;;;15.70;49.90;;;;;;5092797;28;20115;-71
2021/05/03 10:56:52;;;;;;;11.93;8.70;;;15.80;49.80;;;;;;5071124;28;20344;-70
2021/05/03 10:59:18;;;;;;;14.05;9.93;;;15.80;49.70;;;;;;5080107;28;20081;-72
2021/05/03 11:01:53;;;;;;;12.55;9.02;;;15.90;48.70;;;;;;5072234;28;20104;-70
2021/05/03 11:04:23;;;;;;;11.32;8.70;;;16.00;49.40;;;;;;5072009;28;20100;-72
2021/05/03 11:06:49;;;;;;;11.73;8.50;;;16.30;49.80;;;;;;5071853;28;20037;-72
2021/05/03 11:09:30;;;;;;;11.38;8.52;;;16.50;49.00;;;;;;5053817;28;20031;-74
2021/05/03 11:12:13;;;;;;;12.23;7.97;;;16.80;47.30;;;;;;5033874;28;20029;-72
2021/05/03 11:15:05;;;;;;;10.40;7.78;;;17.10;46.70;;;;;;5033962;28;20435;-70
2021/05/03 11:17:31;;;;;;;10.25;8.30;;;17.20;44.10;;;;;;5063891;28;20426;-71
2021/05/03 11:22:46;;;;;;;12.07;7.97;;;17.10;44.80;;;;;;5071921;28;20118;-70
2021/05/03 11:25:19;;;;;;;10.02;6.95;;;17.10;44.60;;;;;;5045819;28;625360;-72
2021/05/03 11:28:03;;;;;;;10.95;6.43;;;17.40;43.70;;;;;;5060157;28;20017;-73
2021/05/03 11:33:45;;;;;;;10.73;5.85;;;17.30;42.10;;;;;;4991334;28;20035;-73
2021/05/03 11:36:24;;;;;;;7.93;5.75;;;17.30;42.90;;;;;;5065553;28;20064;-70
2021/05/03 11:46:36;;;;;;;11.48;7.18;;;17.30;41.70;;;;;;5059425;28;20127;-72
2021/05/03 11:49:13;;;;;;;8.85;5.93;;;17.10;42.20;;;;;;5057887;28;20040;-72
2021/05/03 11:51:46;;;;;;;9.50;6.32;;;17.20;43.30;;;;;;5076085;28;20060;-71
2021/05/03 11:54:30;;;;;;;10.40;6.70;;;17.40;42.90;;;;;;5062440;28;20071;-72
2021/05/03 11:56:57;;;;;;;9.40;6.30;;;17.50;41.80;;;;;;5075351;28;20024;-75
2021/05/03 11:59:23;;;;;;;7.45;5.63;;;17.50;41.00;;;;;;5078897;28;20032;-72
2021/05/03 12:02:00;;;;;;;9.15;6.38;;;17.50;41.70;;;;;;5077869;28;20028;-71
2021/05/03 12:04:35;;;;;;;7.95;5.93;;;17.50;40.40;;;;;;5075605;28;20020;-72
2021/05/03 12:07:18;;;;;;;9.48;5.78;;;17.40;40.10;;;;;;5057581;28;20479;-70
2021/05/03 12:09:45;;;;;;;6.45;4.63;;;17.30;40.70;;;;;;5059660;28;20024;-70
2021/05/03 12:12:11;;;;;;;8.50;5.32;;;17.20;41.20;;;;;;5076874;28;20384;-74
2021/05/03 12:14:48;;;;;;;7.53;5.38;;;17.20;41.50;;;;;;5075052;28;20025;-70
2021/05/03 12:17:21;;;;;;;11.48;6.88;;;17.20;41.70;;;;;;5075137;28;20021;-71
2021/05/03 12:19:48;;;;;;;8.30;5.28;;;17.20;42.10;;;;;;5064968;28;21220;-70
2021/05/03 12:22:14;;;;;;;8.50;5.22;;;17.20;42.40;;;;;;5081607;28;20035;-71
2021/05/03 12:24:43;;;;;;;11.23;5.22;;;17.20;42.60;;;;;;5092437;28;20044;-70
2021/05/03 12:27:08;;;;;;;8.32;5.78;;;17.30;42.40;;;;;;5041894;28;20028;-70
2021/05/03 12:29:37;;;;;;;9.95;5.00;;;17.20;42.00;;;;;;5084196;28;20024;-72
2021/05/03 12:32:09;;;;;;;9.43;5.85;;;17.20;42.20;;;;;;5075153;28;20029;-70
2021/05/03 12:34:39;;;;;;;8.75;5.68;;;17.20;42.10;;;;;;5075149;28;20028;-74
2021/05/03 12:37:11;;;;;;;8.85;6.03;;;17.20;42.40;;;;;;5062248;28;20120;-73
2021/05/03 12:39:41;;;;;;;9.40;6.05;;;17.20;42.30;;;;;;5083548;28;20476;-69
2021/05/03 12:42:17;;;;;;;9.85;6.88;;;17.20;42.40;;;;;;5082431;28;20028;-71
2021/05/03 12:44:55;;;;;;;10.55;7.07;;;17.20;42.30;;;;;;5082165;28;20361;-70
2021/05/03 12:47:35;;;;;;;9.68;6.40;;;17.20;42.20;;;;;;5074868;28;20051;-74
2021/05/03 12:50:18;;;;;;;8.88;6.22;;;17.40;42.60;;;;;;5074756;28;20020;-69
2021/05/03 12:53:10;;;;;;;8.02;5.88;;;17.70;42.80;;;;;;5056606;28;20025;-70
2021/05/03 13:01:06;;;;;;;6.20;4.80;;;18.40;41.00;;;;;;5072097;28;20040;-71
2021/05/03 13:03:47;;;;;;;10.82;5.63;;;18.60;40.80;;;;;;5058464;28;20035;-71
2021/05/03 13:29:12;;;;;;;5.93;4.37;;;18.60;39.00;;;;;;5040407;28;20051;-76
2021/05/03 13:31:41;;;;;;;7.75;5.15;;;18.60;39.10;;;;;;5067135;28;20377;-77
2021/05/03 13:34:10;;;;;;;6.82;4.80;;;18.50;38.90;;;;;;5067603;28;20016;-77
2021/05/03 13:36:38;;;;;;;7.38;4.63;;;18.40;38.80;;;;;;5082421;28;20024;-70
2021/05/03 13:39:07;;;;;;;9.55;5.15;;;18.30;39.20;;;;;;5060953;28;20158;-69
2021/05/03 13:41:34;;;;;;;6.60;4.22;;;18.30;39.50;;;;;;5081865;28;20487;-69
2021/05/03 13:44:00;;;;;;;6.63;4.15;;;18.40;39.50;;;;;;5078824;28;20039;-69
2021/05/03 13:46:27;;;;;;;8.70;4.60;;;18.40;38.90;;;;;;5057974;28;20017;-73
2021/05/03 13:48:54;;;;;;;5.32;4.07;;;18.40;38.80;;;;;;5052804;28;20028;-69
2021/05/03 13:51:23;;;;;;;6.18;4.70;;;18.30;38.70;;;;;;5035731;28;20035;-70
2021/05/03 13:53:49;;;;;;;8.27;5.30;;;18.20;38.70;;;;;;5029468;28;20029;-76
2021/05/03 13:56:16;;;;;;;7.57;4.25;;;18.00;38.80;;;;;;5063145;28;20368;-76
2021/05/03 13:58:42;;;;;;;6.90;4.60;;;17.90;39.10;;;;;;5055612;28;20043;-76
2021/05/03 14:01:08;;;;;;;6.65;4.15;;;18.00;39.60;;;;;;5073307;28;20025;-77